createdAt,value
2018-08-16T00:00:28.107Z,12.50
2018-08-16T00:02:56.922Z,11.87
2018-08-16T00:05:25.573Z,13.50
2018-08-16T00:07:54.016Z,10.83
2018-08-16T00:10:22.432Z,12.07
2018-08-16T00:12:51.236Z,12.20
2018-08-16T00:15:21.824Z,14.17
2018-08-16T00:17:50.375Z,14.20
2018-08-16T00:20:18.848Z,14.80
2018-08-16T00:22:47.723Z,11.73
2018-08-16T00:25:17.267Z,11.10
2018-08-16T00:27:47.203Z,30.03
2018-08-16T00:30:17.184Z,16.33
2018-08-16T00:32:46.043Z,12.87
2018-08-16T00:35:14.493Z,16.90
2018-08-16T00:37:43.869Z,16.10
2018-08-16T00:40:15.059Z,13.57
2018-08-16T00:42:43.534Z,14.33
2018-08-16T00:45:12.431Z,16.03
2018-08-16T00:47:40.851Z,13.30
2018-08-16T00:50:11.456Z,14.97
2018-08-16T00:52:39.922Z,13.67
2018-08-16T00:55:09.764Z,13.60
2018-08-16T00:57:38.627Z,19.83
2018-08-16T01:00:09.790Z,15.43
2018-08-16T01:02:38.239Z,16.00
2018-08-16T01:05:07.193Z,15.53
2018-08-16T01:07:35.700Z,16.63
2018-08-16T01:10:05.044Z,14.17
2018-08-16T01:12:33.476Z,19.43
2018-08-16T01:15:01.951Z,15.10
2018-08-16T01:17:30.369Z,14.47
2018-08-16T01:19:58.825Z,17.27
2018-08-16T01:22:27.254Z,14.77
2018-08-16T01:24:55.725Z,18.77
2018-08-16T01:27:24.171Z,18.97
2018-08-16T01:29:52.609Z,18.70
2018-08-16T01:32:21.753Z,16.13
2018-08-16T01:34:50.290Z,16.53
2018-08-16T01:37:18.730Z,26.97
2018-08-16T01:39:47.198Z,15.63
2018-08-16T01:42:16.148Z,22.93
2018-08-16T01:44:44.746Z,18.93
2018-08-16T01:47:13.172Z,18.53
2018-08-16T01:49:41.608Z,15.90
2018-08-16T01:52:10.033Z,17.70
2018-08-16T01:54:38.500Z,26.50
2018-08-16T01:57:07.017Z,22.27
2018-08-16T01:59:35.450Z,16.43
2018-08-16T02:02:03.899Z,18.17
2018-08-16T02:04:32.357Z,17.70
2018-08-16T02:07:01.853Z,15.77
2018-08-16T02:09:30.311Z,16.00
2018-08-16T02:11:59.596Z,21.53
2018-08-16T02:14:28.647Z,22.13
2018-08-16T02:16:57.073Z,17.60
2018-08-16T02:19:25.518Z,15.83
2018-08-16T02:21:53.960Z,16.30
2018-08-16T02:24:23.625Z,14.60
2018-08-16T02:26:52.105Z,14.33
2018-08-16T02:29:20.569Z,15.47
2018-08-16T02:31:48.984Z,17.70
2018-08-16T02:34:17.438Z,16.93
2018-08-16T02:36:47.669Z,18.13
2018-08-16T02:39:16.123Z,19.20
2018-08-16T02:41:44.549Z,20.93
2018-08-16T02:44:13.005Z,16.67
2018-08-16T02:46:41.450Z,17.83
2018-08-16T02:49:09.894Z,18.30
2018-08-16T02:51:38.314Z,20.00
2018-08-16T02:54:06.846Z,18.60
2018-08-16T02:56:35.276Z,17.43
2018-08-16T02:59:03.702Z,20.23
2018-08-16T03:01:32.181Z,17.23
2018-08-16T03:04:00.610Z,25.83
2018-08-16T03:06:29.044Z,21.07
2018-08-16T03:08:57.468Z,19.57
2018-08-16T03:11:25.918Z,18.00
2018-08-16T03:13:55.048Z,19.87
2018-08-16T03:16:23.512Z,18.40
2018-08-16T03:18:51.968Z,19.10
2018-08-16T03:21:20.405Z,19.73
2018-08-16T03:23:48.829Z,23.33
2018-08-16T03:26:17.261Z,21.23
2018-08-16T03:28:45.738Z,20.13
2018-08-16T03:31:14.217Z,20.63
2018-08-16T03:33:42.904Z,18.90
2018-08-16T03:36:12.134Z,25.93
2018-08-16T03:38:40.577Z,23.20
2018-08-16T03:41:09.033Z,23.93
2018-08-16T03:43:37.583Z,19.80
2018-08-16T03:46:06.057Z,21.00
2018-08-16T03:48:34.509Z,23.77
2018-08-16T03:51:03.841Z,21.73
2018-08-16T03:53:32.752Z,22.23
2018-08-16T03:56:01.230Z,22.63
2018-08-16T03:58:31.134Z,20.20
2018-08-16T04:00:59.569Z,22.33
2018-08-16T04:03:29.680Z,20.80
2018-08-16T04:05:58.814Z,25.47
2018-08-16T04:08:27.260Z,19.53
2018-08-16T04:10:55.740Z,25.63
2018-08-16T04:13:25.915Z,25.23
2018-08-16T04:15:54.901Z,22.27
2018-08-16T04:18:23.360Z,20.83
2018-08-16T04:20:51.807Z,23.30
2018-08-16T04:23:20.296Z,22.30
2018-08-16T04:25:48.802Z,19.07
2018-08-16T04:28:17.212Z,20.37
2018-08-16T04:30:45.664Z,23.03
2018-08-16T04:33:19.610Z,20.30
2018-08-16T04:35:50.570Z,27.20
2018-08-16T04:38:19.735Z,18.73
2018-08-16T04:40:48.786Z,21.07
2018-08-16T04:43:17.306Z,24.70
2018-08-16T04:45:46.045Z,19.60
2018-08-16T04:48:14.724Z,24.77
2018-08-16T04:50:43.220Z,22.97
2018-08-16T04:53:11.913Z,20.40
2018-08-16T04:55:43.589Z,20.13
2018-08-16T04:58:12.307Z,22.20
2018-08-16T05:00:40.940Z,19.30
2018-08-16T05:03:09.668Z,18.70
2018-08-16T05:05:38.183Z,21.67
2018-08-16T05:08:06.704Z,20.33
2018-08-16T05:10:35.155Z,19.40
2018-08-16T05:13:03.581Z,23.80
2018-08-16T05:15:32.000Z,22.00
2018-08-16T05:18:00.469Z,18.97
2018-08-16T05:20:28.902Z,20.60
2018-08-16T05:22:57.438Z,17.63
2018-08-16T05:25:26.720Z,18.90
2018-08-16T05:27:55.406Z,20.70
2018-08-16T05:30:24.877Z,18.53
2018-08-16T05:32:53.360Z,20.70
2018-08-16T05:35:21.801Z,16.80
2018-08-16T05:37:50.333Z,17.63
2018-08-16T05:40:18.852Z,18.70
2018-08-16T05:42:47.283Z,16.97
2018-08-16T05:45:15.785Z,15.23
2018-08-16T05:47:44.269Z,16.63
2018-08-16T05:50:13.240Z,15.83
2018-08-16T05:52:42.468Z,15.90
2018-08-16T05:55:10.919Z,14.80
2018-08-16T05:57:39.775Z,16.30
2018-08-16T06:00:11.582Z,15.60
2018-08-16T06:02:40.109Z,15.37
2018-08-16T06:05:09.656Z,17.07
2018-08-16T06:07:38.149Z,17.50
2018-08-16T06:10:07.872Z,15.57
2018-08-16T06:12:36.313Z,15.87
2018-08-16T06:15:05.788Z,15.13
2018-08-16T06:17:35.564Z,14.00
2018-08-16T06:20:05.870Z,15.50
2018-08-16T06:22:34.341Z,14.77
2018-08-16T06:25:02.838Z,12.30
2018-08-16T06:27:31.469Z,13.40
2018-08-16T06:29:59.878Z,16.67
2018-08-16T06:32:28.305Z,17.93
2018-08-16T06:34:56.737Z,14.77
2018-08-16T06:37:25.984Z,16.90
2018-08-16T06:39:54.886Z,18.33
2018-08-16T06:42:23.336Z,17.50
2018-08-16T06:44:51.785Z,16.33
2018-08-16T06:47:20.250Z,16.87
2018-08-16T06:49:48.705Z,13.63
2018-08-16T06:52:17.181Z,15.90
2018-08-16T06:54:45.613Z,15.90
2018-08-16T06:57:14.072Z,14.50
2018-08-16T06:59:42.498Z,17.80
2018-08-16T07:02:11.021Z,13.73
2018-08-16T07:04:39.440Z,13.20
2018-08-16T07:07:08.197Z,16.30
2018-08-16T07:09:36.693Z,14.50
2018-08-16T07:12:05.242Z,15.60
2018-08-16T07:14:33.667Z,12.90
2018-08-16T07:17:02.207Z,16.70
2018-08-16T07:19:30.645Z,14.70
2018-08-16T07:21:59.130Z,13.27
2018-08-16T07:24:28.531Z,11.63
2018-08-16T07:26:56.879Z,12.83
2018-08-16T07:29:25.313Z,17.10
2018-08-16T07:31:53.803Z,19.07
2018-08-16T07:34:22.271Z,14.13
2018-08-16T07:36:50.717Z,12.13
2018-08-16T07:39:19.189Z,12.53
2018-08-16T07:41:47.605Z,15.67
2018-08-16T07:44:16.114Z,13.13
2018-08-16T07:46:44.541Z,12.17
2018-08-16T07:49:13.006Z,12.90
2018-08-16T07:51:41.653Z,12.17
2018-08-16T07:54:10.014Z,9.60
2018-08-16T07:56:38.547Z,12.33
2018-08-16T07:59:06.714Z,14.03
2018-08-16T08:01:35.163Z,9.73
2018-08-16T08:04:03.628Z,10.30
2018-08-16T08:06:32.071Z,9.60
2018-08-16T08:09:00.736Z,9.33
2018-08-16T08:11:29.073Z,11.33
2018-08-16T08:13:57.798Z,11.70
2018-08-16T08:16:26.283Z,8.20
2018-08-16T08:18:54.738Z,11.07
2018-08-16T08:21:23.211Z,10.30
2018-08-16T08:23:51.659Z,11.70
2018-08-16T08:26:20.169Z,10.40
2018-08-16T08:28:48.627Z,12.30
2018-08-16T08:31:17.047Z,9.27
2018-08-16T08:33:45.519Z,11.93
2018-08-16T08:36:25.225Z,14.53
2018-08-16T08:38:53.703Z,11.20
2018-08-16T08:41:22.145Z,9.13
2018-08-16T08:44:21.171Z,10.60
2018-08-16T08:46:54.124Z,10.77
2018-08-16T08:49:22.828Z,9.73
2018-08-16T08:51:52.212Z,8.57
2018-08-16T08:54:50.682Z,11.40
2018-08-16T08:57:31.011Z,10.80
2018-08-16T08:59:59.537Z,12.43
2018-08-16T09:02:27.986Z,10.50
2018-08-16T09:04:56.452Z,9.27
2018-08-16T09:07:25.305Z,9.67
2018-08-16T09:11:23.255Z,11.87
2018-08-16T09:14:05.502Z,8.80
2018-08-16T09:16:37.742Z,9.20
2018-08-16T09:19:06.971Z,8.30
2018-08-16T09:21:35.654Z,10.00
2018-08-16T09:24:04.153Z,9.37
2018-08-16T09:26:38.014Z,9.00
2018-08-16T09:30:38.855Z,13.60
2018-08-16T09:33:18.650Z,11.20
2018-08-16T09:35:47.097Z,10.40
2018-08-16T09:38:15.514Z,8.90
2018-08-16T09:40:43.946Z,11.40
2018-08-16T09:43:12.487Z,10.07
2018-08-16T09:46:59.137Z,9.40
2018-08-16T09:49:29.877Z,10.13
2018-08-16T09:51:58.325Z,6.63
2018-08-16T09:54:27.205Z,6.93
2018-08-16T09:56:56.576Z,9.73
2018-08-16T09:59:25.138Z,10.93
2018-08-16T10:01:53.341Z,11.30
2018-08-16T10:04:21.579Z,10.20
2018-08-16T10:06:50.982Z,6.37
2018-08-16T10:09:21.851Z,10.40
2018-08-16T10:11:50.418Z,8.20
2018-08-16T10:14:19.252Z,9.20
2018-08-16T10:16:47.703Z,16.30
2018-08-16T10:19:16.177Z,13.03
2018-08-16T10:21:44.663Z,10.30
2018-08-16T10:24:13.194Z,8.10
2018-08-16T10:26:41.653Z,8.00
2018-08-16T10:29:10.657Z,7.43
2018-08-16T10:31:39.262Z,7.60
2018-08-16T10:34:08.524Z,7.40
2018-08-16T10:36:36.971Z,16.13
2018-08-16T10:39:15.118Z,12.10
2018-08-16T10:41:43.807Z,7.73
2018-08-16T10:44:13.009Z,10.80
2018-08-16T10:46:41.577Z,15.67
2018-08-16T10:49:10.401Z,8.07
2018-08-16T10:51:38.882Z,12.90
2018-08-16T10:54:07.349Z,7.70
2018-08-16T10:56:35.897Z,11.17
2018-08-16T10:59:04.429Z,10.43
2018-08-16T11:01:32.889Z,7.20
2018-08-16T11:04:01.320Z,6.70
2018-08-16T11:06:29.747Z,8.93
2018-08-16T11:08:58.198Z,8.07
2018-08-16T11:11:26.751Z,9.10
2018-08-16T11:13:55.191Z,6.87
2018-08-16T11:16:23.764Z,9.10
2018-08-16T11:18:52.281Z,9.50
2018-08-16T11:21:20.784Z,8.67
2018-08-16T11:23:49.245Z,7.50
2018-08-16T11:26:17.669Z,13.40
2018-08-16T11:28:46.118Z,9.80
2018-08-16T11:31:14.548Z,6.90
2018-08-16T11:33:42.968Z,7.90
2018-08-16T11:36:11.413Z,6.77
2018-08-16T11:38:39.906Z,6.80
2018-08-16T11:41:08.333Z,6.77
2018-08-16T11:43:36.789Z,9.53
2018-08-16T11:46:05.480Z,8.27
2018-08-16T11:48:33.946Z,13.90
2018-08-16T11:51:02.384Z,8.70
2018-08-16T11:53:30.845Z,8.67
2018-08-16T11:55:59.268Z,7.07
2018-08-16T11:58:27.742Z,5.13
2018-08-16T12:00:56.301Z,7.07
2018-08-16T12:03:24.762Z,6.83
2018-08-16T12:05:53.248Z,7.77
2018-08-16T12:08:21.725Z,9.93
2018-08-16T12:10:50.157Z,6.30
2018-08-16T12:13:18.626Z,5.07
2018-08-16T12:15:47.144Z,12.27
2018-08-16T12:18:15.631Z,6.47
2018-08-16T12:20:44.102Z,8.23
2018-08-16T12:23:12.526Z,8.00
2018-08-16T12:25:41.017Z,5.77
2018-08-16T12:28:09.492Z,5.60
2018-08-16T12:30:38.052Z,7.83
2018-08-16T12:33:06.530Z,7.20
2018-08-16T12:35:34.973Z,8.83
2018-08-16T12:38:03.416Z,5.50
2018-08-16T12:40:32.015Z,7.73
2018-08-16T12:43:00.437Z,5.10
2018-08-16T12:45:28.964Z,6.33
2018-08-16T12:47:57.389Z,14.90
2018-08-16T12:50:25.861Z,5.20
2018-08-16T12:52:54.421Z,9.37
2018-08-16T12:55:22.884Z,6.40
2018-08-16T12:57:51.323Z,5.23
2018-08-16T13:00:20.159Z,5.53
2018-08-16T13:02:49.293Z,9.37
2018-08-16T13:05:17.995Z,6.50
2018-08-16T13:07:46.418Z,6.60
2018-08-16T13:10:15.481Z,5.00
2018-08-16T13:12:44.121Z,6.17
2018-08-16T13:15:12.587Z,5.67
2018-08-16T13:17:41.201Z,5.93
2018-08-16T13:20:10.628Z,5.50
2018-08-16T13:22:39.299Z,5.10
2018-08-16T13:25:10.074Z,8.60
2018-08-16T13:27:38.735Z,7.00
2018-08-16T13:30:08.544Z,9.20
2018-08-16T13:32:37.312Z,8.43
2018-08-16T13:35:05.794Z,5.23
2018-08-16T13:37:34.261Z,6.70
2018-08-16T13:40:02.777Z,6.93
2018-08-16T13:42:31.907Z,8.83
2018-08-16T13:45:00.302Z,10.43
2018-08-16T13:47:29.596Z,9.10
2018-08-16T13:49:58.400Z,6.33
2018-08-16T13:52:26.857Z,5.30
2018-08-16T13:54:55.329Z,6.53
2018-08-16T13:57:23.884Z,5.00
2018-08-16T13:59:52.341Z,7.60
2018-08-16T14:02:20.868Z,6.30
2018-08-16T14:04:49.297Z,8.50
2018-08-16T14:07:17.741Z,6.50
2018-08-16T14:09:46.193Z,5.37
2018-08-16T14:12:15.447Z,5.40
2018-08-16T14:14:44.453Z,6.63
2018-08-16T14:17:12.921Z,7.60
2018-08-16T14:19:41.341Z,7.97
2018-08-16T14:22:09.862Z,4.87
2018-08-16T14:24:38.338Z,5.30
2018-08-16T14:27:06.811Z,5.70
2018-08-16T14:29:35.234Z,6.80
2018-08-16T14:32:03.749Z,6.40
2018-08-16T14:34:32.178Z,6.10
2018-08-16T14:37:00.924Z,6.23
2018-08-16T14:39:29.666Z,6.30
2018-08-16T14:41:58.111Z,5.20
2018-08-16T14:44:26.529Z,6.40
2018-08-16T14:46:58.023Z,9.07
2018-08-16T14:49:27.624Z,6.43
2018-08-16T14:51:56.533Z,6.57
2018-08-16T14:54:24.995Z,6.20
2018-08-16T14:56:53.500Z,6.23
2018-08-16T14:59:21.922Z,6.87
2018-08-16T15:01:50.429Z,6.83
2018-08-16T15:04:18.865Z,5.43
2018-08-16T15:06:47.945Z,10.83
2018-08-16T15:09:17.394Z,6.13
2018-08-16T15:11:45.829Z,4.93
2018-08-16T15:14:14.266Z,7.63
2018-08-16T15:16:43.272Z,6.60
2018-08-16T15:19:11.689Z,5.77
2018-08-16T15:21:40.157Z,6.70
2018-08-16T15:24:10.468Z,6.80
2018-08-16T15:26:39.004Z,5.03
2018-08-16T15:29:07.417Z,5.23
2018-08-16T15:31:35.917Z,6.10
2018-08-16T15:34:04.429Z,7.67
2018-08-16T15:36:32.907Z,5.90
2018-08-16T15:39:01.364Z,7.83
2018-08-16T15:41:29.841Z,8.07
2018-08-16T15:43:58.265Z,6.40
2018-08-16T15:46:26.730Z,7.57
2018-08-16T15:48:55.165Z,10.80
2018-08-16T15:51:23.613Z,6.40
2018-08-16T15:53:52.067Z,6.00
2018-08-16T15:56:20.554Z,6.27
2018-08-16T15:58:48.969Z,5.30
2018-08-16T16:01:17.606Z,7.47
2018-08-16T16:03:46.065Z,7.57
2018-08-16T16:06:14.589Z,6.80
2018-08-16T16:08:42.964Z,6.93
2018-08-16T16:11:11.376Z,6.00
2018-08-16T16:13:39.843Z,6.20
2018-08-16T16:16:08.416Z,7.30
2018-08-16T16:18:36.953Z,8.13
2018-08-16T16:21:05.385Z,6.57
2018-08-16T16:23:33.875Z,6.70
2018-08-16T16:26:02.299Z,6.43
2018-08-16T16:28:30.820Z,7.03
2018-08-16T16:30:59.292Z,5.10
2018-08-16T16:33:27.815Z,9.50
2018-08-16T16:35:56.339Z,6.70
2018-08-16T16:38:24.795Z,5.57
2018-08-16T16:40:53.271Z,5.03
2018-08-16T16:43:21.743Z,4.97
2018-08-16T16:45:50.189Z,6.50
2018-08-16T16:48:18.644Z,6.60
2018-08-16T16:50:47.069Z,6.30
2018-08-16T16:53:15.686Z,5.90
2018-08-16T16:55:44.142Z,5.30
2018-08-16T16:58:12.605Z,9.03
2018-08-16T17:00:41.041Z,6.33
2018-08-16T17:03:10.984Z,7.97
2018-08-16T17:05:39.399Z,6.87
2018-08-16T17:08:07.848Z,5.43
2018-08-16T17:10:37.936Z,7.90
2018-08-16T17:13:06.401Z,7.40
2018-08-16T17:15:34.818Z,4.90
2018-08-16T17:18:03.343Z,7.20
2018-08-16T17:20:31.765Z,5.63
2018-08-16T17:23:00.204Z,5.97
2018-08-16T17:25:28.656Z,5.43
2018-08-16T17:27:57.152Z,5.53
2018-08-16T17:30:25.573Z,5.40
2018-08-16T17:32:54.049Z,8.13
2018-08-16T17:35:22.557Z,7.97
2018-08-16T17:37:51.005Z,8.50
2018-08-16T17:40:19.421Z,5.97
2018-08-16T17:42:47.921Z,8.10
2018-08-16T17:45:16.345Z,7.17
2018-08-16T17:47:44.817Z,11.73
2018-08-16T17:50:13.813Z,5.57
2018-08-16T17:52:42.472Z,5.20
2018-08-16T17:55:11.860Z,6.90
2018-08-16T17:57:41.044Z,12.23
2018-08-16T18:00:10.275Z,7.37
2018-08-16T18:02:38.791Z,5.80
2018-08-16T18:05:07.220Z,7.13
2018-08-16T18:07:35.699Z,9.47
2018-08-16T18:10:05.373Z,8.27
2018-08-16T18:12:34.205Z,7.67
2018-08-16T18:15:04.281Z,11.30
2018-08-16T18:17:33.035Z,7.40
2018-08-16T18:20:01.497Z,10.73
2018-08-16T18:22:29.986Z,5.37
2018-08-16T18:24:58.449Z,9.73
2018-08-16T18:27:26.913Z,11.60
2018-08-16T18:29:55.363Z,8.10
2018-08-16T18:32:25.781Z,7.40
2018-08-16T18:34:54.365Z,9.80
2018-08-16T18:37:22.796Z,6.33
2018-08-16T18:39:51.337Z,8.50
2018-08-16T18:42:19.751Z,11.07
2018-08-16T18:44:48.287Z,8.50
2018-08-16T18:47:16.679Z,7.20
2018-08-16T18:49:45.168Z,35.47
2018-08-16T18:52:13.609Z,29.07
2018-08-16T18:54:42.071Z,20.27
2018-08-16T18:57:10.505Z,32.40
2018-08-16T18:59:38.984Z,11.77
2018-08-16T19:02:07.551Z,19.37
2018-08-16T19:04:36.273Z,13.23
2018-08-16T19:07:04.745Z,14.97
2018-08-16T19:09:35.154Z,31.23
2018-08-16T19:12:03.757Z,31.30
2018-08-16T19:14:32.315Z,11.43
2018-08-16T19:17:00.890Z,12.47
2018-08-16T19:19:29.342Z,13.27
2018-08-16T19:21:57.794Z,10.93
2018-08-16T19:24:26.563Z,9.37
2018-08-16T19:26:56.060Z,12.37
2018-08-16T19:29:28.466Z,9.97
2018-08-16T19:32:04.483Z,7.40
2018-08-16T19:34:34.972Z,9.80
2018-08-16T19:37:03.712Z,6.07
2018-08-16T19:39:32.828Z,6.90
2018-08-16T19:42:01.781Z,20.70
2018-08-16T19:44:30.466Z,8.53
2018-08-16T19:46:59.186Z,18.63
2018-08-16T19:49:28.019Z,8.63
2018-08-16T19:51:57.083Z,32.23
2018-08-16T19:54:26.019Z,12.53
2018-08-16T19:56:55.046Z,13.60
2018-08-16T19:59:24.144Z,23.77
2018-08-16T20:01:53.256Z,7.23
2018-08-16T20:04:22.217Z,9.10
2018-08-16T20:06:50.991Z,8.20
2018-08-16T20:09:19.746Z,8.20
2018-08-16T20:11:48.572Z,8.27
2018-08-16T20:14:17.198Z,8.80
2018-08-16T20:16:46.254Z,12.13
2018-08-16T20:19:15.355Z,8.30
2018-08-16T20:21:44.116Z,8.47
2018-08-16T20:24:13.258Z,12.23
2018-08-16T20:26:42.133Z,11.50
2018-08-16T20:29:11.055Z,11.67
2018-08-16T20:31:39.722Z,7.00
2018-08-16T20:34:08.684Z,9.20
2018-08-16T20:36:37.457Z,11.20
2018-08-16T20:39:07.863Z,9.90
2018-08-16T20:41:36.820Z,8.90
2018-08-16T20:44:05.783Z,10.70
2018-08-16T20:46:34.960Z,8.00
2018-08-16T20:49:03.547Z,10.00
2018-08-16T20:51:32.281Z,13.77
2018-08-16T20:54:01.313Z,19.07
2018-08-16T20:56:30.002Z,15.07
2018-08-16T20:58:58.880Z,9.53
2018-08-16T21:01:27.451Z,9.57
2018-08-16T21:03:56.071Z,9.27
2018-08-16T21:06:24.738Z,12.23
2018-08-16T21:08:54.024Z,11.63
2018-08-16T21:11:22.649Z,11.00
2018-08-16T21:13:54.437Z,9.97
2018-08-16T21:16:23.097Z,11.33
2018-08-16T21:18:51.829Z,14.20
2018-08-16T21:21:20.322Z,9.67
2018-08-16T21:23:48.952Z,17.20
2018-08-16T21:26:17.552Z,21.07
2018-08-16T21:28:46.115Z,28.20
2018-08-16T21:31:14.593Z,24.40
2018-08-16T21:33:43.105Z,9.30
2018-08-16T21:36:11.705Z,8.87
2018-08-16T21:38:40.121Z,10.33
2018-08-16T21:41:08.588Z,10.90
2018-08-16T21:43:37.082Z,8.57
2018-08-16T21:46:05.650Z,9.13
2018-08-16T21:48:34.463Z,10.03
2018-08-16T21:51:02.899Z,13.73
2018-08-16T21:53:31.394Z,18.53
2018-08-16T21:55:59.840Z,9.77
2018-08-16T21:58:28.283Z,10.27
2018-08-16T22:01:00.976Z,11.03
2018-08-16T22:03:29.600Z,14.90
2018-08-16T22:06:04.963Z,11.17
2018-08-16T22:08:42.627Z,12.53
2018-08-16T22:11:11.500Z,11.97
2018-08-16T22:13:40.119Z,11.43
2018-08-16T22:16:08.599Z,12.60
2018-08-16T22:18:37.520Z,10.53
2018-08-16T22:21:06.005Z,12.03
2018-08-16T22:23:34.441Z,13.60
2018-08-16T22:26:03.005Z,10.10
2018-08-16T22:28:31.488Z,12.90
2018-08-16T22:31:00.416Z,12.90
2018-08-16T22:33:29.223Z,21.50
2018-08-16T22:35:57.784Z,17.13
2018-08-16T22:38:26.467Z,15.83
2018-08-16T22:40:54.974Z,20.10
2018-08-16T22:43:23.491Z,17.03
2018-08-16T22:45:51.984Z,15.13
2018-08-16T22:48:20.427Z,10.73
2018-08-16T22:50:48.871Z,12.10
2018-08-16T22:53:17.332Z,13.23
2018-08-16T22:55:45.796Z,13.83
2018-08-16T22:58:14.256Z,13.37
2018-08-16T23:00:42.723Z,12.30
2018-08-16T23:03:11.272Z,17.97
2018-08-16T23:05:39.700Z,16.97
2018-08-16T23:08:08.277Z,14.10
2018-08-16T23:10:36.750Z,27.33
2018-08-16T23:13:05.259Z,29.13
2018-08-16T23:15:33.802Z,28.53
2018-08-16T23:18:02.276Z,16.63
2018-08-16T23:20:30.875Z,14.40
2018-08-16T23:22:59.364Z,16.17
2018-08-16T23:25:27.869Z,20.53
2018-08-16T23:27:56.336Z,22.50
2018-08-16T23:30:24.818Z,21.27
2018-08-16T23:32:53.301Z,16.80
2018-08-16T23:35:21.897Z,18.60
2018-08-16T23:37:50.432Z,21.00
2018-08-16T23:40:18.860Z,27.10
2018-08-16T23:42:47.414Z,21.83
2018-08-16T23:45:15.969Z,19.73
2018-08-16T23:47:54.614Z,20.73
2018-08-16T23:50:23.151Z,23.50
2018-08-16T23:52:51.608Z,24.80
2018-08-16T23:55:20.106Z,27.30
2018-08-16T23:57:48.628Z,23.47
